Time;durP1;ratioP1;P1;durP2;ratioP2;P2;SDS_P1;SDS_P2;PMS_P1;PMS_P2;Temp;Humidity;BMP_temperature;BMP_pressure;BME280_temperature;BME280_humidity;BME280_pressure;Samples;Min_cycle;Max_cycle;Signal;HPM_P1;HPM_P2
2021/03/15 00:00:51;;;;;;;15.83;15.13;;;5.50;99.90;;;;;;5118961;27;20539;-73
2021/03/15 00:03:22;;;;;;;16.57;15.77;;;5.50;99.90;;;;;;5120593;27;20503;-73
2021/03/15 00:05:49;;;;;;;16.87;16.07;;;5.50;99.90;;;;;;5116456;27;20578;-74
2021/03/15 00:08:15;;;;;;;17.60;16.80;;;5.60;99.90;;;;;;5121928;27;20473;-73
2021/03/15 00:10:42;;;;;;;17.07;16.27;;;5.50;99.90;;;;;;5108065;27;20469;-74
2021/03/15 00:13:09;;;;;;;16.90;16.10;;;5.60;99.90;;;;;;5119277;27;20513;-75
2021/03/15 00:15:35;;;;;;;17.47;16.67;;;5.60;99.90;;;;;;5119320;27;20445;-75
2021/03/15 00:18:03;;;;;;;17.47;16.67;;;5.60;99.90;;;;;;5126241;27;20467;-75
2021/03/15 00:20:32;;;;;;;16.67;15.87;;;5.50;99.90;;;;;;5118403;27;21027;-74
2021/03/15 00:23:01;;;;;;;17.57;16.77;;;5.60;99.90;;;;;;5120767;27;20808;-76
2021/03/15 00:25:27;;;;;;;18.07;17.17;;;5.60;99.90;;;;;;5120084;27;20555;-75
2021/03/15 00:27:55;;;;;;;18.43;17.53;;;5.60;99.90;;;;;;5115239;27;20459;-75
2021/03/15 00:30:22;;;;;;;17.67;16.87;;;5.50;99.90;;;;;;5122174;27;20485;-74
2021/03/15 00:32:49;;;;;;;17.13;16.33;;;5.60;99.90;;;;;;5122399;27;20546;-76
2021/03/15 00:35:17;;;;;;;16.57;15.77;;;5.60;99.90;;;;;;5121687;27;20911;-76
2021/03/15 00:37:45;;;;;;;17.00;16.20;;;5.60;99.90;;;;;;5122495;27;20484;-77
2021/03/15 00:40:14;;;;;;;16.80;16.00;;;5.70;99.90;;;;;;5119035;27;20467;-77
2021/03/15 00:42:41;;;;;;;17.60;16.80;;;5.70;99.90;;;;;;5118499;27;20469;-76
2021/03/15 00:45:11;;;;;;;16.50;15.80;;;5.80;99.90;;;;;;5121259;27;20493;-76
2021/03/15 00:47:38;;;;;;;16.17;15.47;;;5.80;99.90;;;;;;5120715;27;20474;-77
2021/03/15 00:50:08;;;;;;;15.33;14.63;;;5.70;99.90;;;;;;5120427;27;20910;-76
2021/03/15 00:52:35;;;;;;;15.27;14.57;;;5.70;99.90;;;;;;5124114;27;20560;-77
2021/03/15 00:55:01;;;;;;;15.03;14.33;;;5.70;99.90;;;;;;5118711;27;20543;-76
2021/03/15 00:57:28;;;;;;;16.20;15.50;;;5.60;99.90;;;;;;5122553;27;20517;-76
2021/03/15 00:59:54;;;;;;;15.10;14.40;;;5.60;99.90;;;;;;5117899;27;20493;-76
2021/03/15 01:02:23;;;;;;;16.13;15.43;;;5.60;99.90;;;;;;5117123;27;20465;-76
2021/03/15 01:04:50;;;;;;;15.73;15.03;;;5.60;99.90;;;;;;5122785;27;20494;-77
2021/03/15 01:07:17;;;;;;;15.50;14.80;;;5.60;99.90;;;;;;5120207;27;20942;-76
2021/03/15 01:09:43;;;;;;;15.23;14.53;;;5.50;99.90;;;;;;5119323;27;20485;-76
2021/03/15 01:12:10;;;;;;;15.43;14.73;;;5.60;99.90;;;;;;5120815;27;20468;-76
2021/03/15 01:14:37;;;;;;;15.80;15.10;;;5.60;99.90;;;;;;5120332;27;20465;-76
2021/03/15 01:17:06;;;;;;;16.07;15.37;;;5.60;99.90;;;;;;5117386;27;20481;-76
2021/03/15 01:19:33;;;;;;;16.13;15.43;;;5.70;99.90;;;;;;5117351;27;20465;-76
2021/03/15 01:22:01;;;;;;;16.10;15.40;;;5.70;99.90;;;;;;5120744;27;20456;-76
2021/03/15 01:24:28;;;;;;;15.93;15.23;;;5.60;99.90;;;;;;5117618;27;20874;-77
2021/03/15 01:26:55;;;;;;;16.00;15.30;;;5.50;99.90;;;;;;5117304;27;20463;-77
2021/03/15 01:29:21;;;;;;;15.47;14.77;;;5.60;99.90;;;;;;5116363;27;21020;-77
2021/03/15 01:31:49;;;;;;;15.23;14.57;;;5.50;99.90;;;;;;5119518;27;20449;-76
2021/03/15 01:34:16;;;;;;;15.97;15.27;;;5.50;99.90;;;;;;5120904;27;20461;-76
2021/03/15 01:36:45;;;;;;;15.97;15.27;;;5.40;99.90;;;;;;5122342;27;20455;-76
2021/03/15 01:39:12;;;;;;;15.10;14.40;;;5.40;99.90;;;;;;5115700;27;20946;-76
2021/03/15 01:41:38;;;;;;;15.40;14.70;;;5.40;99.90;;;;;;5119063;27;20503;-76
2021/03/15 01:44:05;;;;;;;15.30;14.60;;;5.30;99.90;;;;;;5120208;27;20572;-76
2021/03/15 01:46:31;;;;;;;15.37;14.67;;;5.30;99.90;;;;;;5112819;27;20491;-76
2021/03/15 01:48:58;;;;;;;14.83;14.23;;;5.20;99.90;;;;;;5116374;27;20452;-76
2021/03/15 01:51:25;;;;;;;14.90;14.23;;;5.30;99.90;;;;;;5117176;27;20809;-76
2021/03/15 01:53:52;;;;;;;15.60;14.90;;;5.20;99.90;;;;;;5115496;27;20461;-75
2021/03/15 01:56:20;;;;;;;14.33;13.73;;;5.30;99.90;;;;;;5119784;27;20475;-76
2021/03/15 01:58:46;;;;;;;14.40;13.80;;;5.30;99.90;;;;;;5118241;27;20465;-75
2021/03/15 02:01:13;;;;;;;21.73;20.20;;;5.30;99.90;;;;;;5112794;27;20460;-75
2021/03/15 02:03:40;;;;;;;15.40;14.70;;;5.30;99.90;;;;;;5117069;27;20464;-75
2021/03/15 02:06:06;;;;;;;14.87;14.27;;;5.30;99.90;;;;;;5116858;27;20485;-75
2021/03/15 02:08:33;;;;;;;14.30;13.70;;;5.30;99.90;;;;;;5120658;27;20483;-75
2021/03/15 02:11:19;;;;;;;15.67;14.97;;;5.20;99.90;;;;;;5120656;27;20490;-75
2021/03/15 02:14:00;;;;;;;15.90;15.20;;;5.20;99.90;;;;;;5118658;27;20471;-75
2021/03/15 02:16:48;;;;;;;16.10;15.40;;;5.20;99.90;;;;;;5121784;27;20487;-75
2021/03/15 02:19:53;;;;;;;16.00;15.30;;;5.20;99.90;;;;;;5123696;27;20576;-76
2021/03/15 02:22:48;;;;;;;15.33;14.63;;;5.10;99.90;;;;;;5121077;27;21035;-76
2021/03/15 02:25:44;;;;;;;15.47;14.77;;;5.20;99.90;;;;;;5101474;28;21103;-76
2021/03/15 02:28:36;;;;;;;14.67;14.07;;;5.30;99.90;;;;;;5101574;28;20456;-76
2021/03/15 02:31:31;;;;;;;15.27;14.57;;;5.20;99.90;;;;;;5119955;28;21225;-76
2021/03/15 02:34:31;;;;;;;15.30;14.60;;;5.40;99.90;;;;;;5121248;28;20464;-75
2021/03/15 02:36:59;;;;;;;15.90;15.20;;;5.40;99.90;;;;;;5110324;28;20471;-76
2021/03/15 02:39:34;;;;;;;16.37;15.67;;;5.50;99.90;;;;;;5119710;28;20459;-76
2021/03/15 02:42:06;;;;;;;16.10;15.40;;;5.40;99.90;;;;;;5118219;28;20810;-76
2021/03/15 02:44:33;;;;;;;16.77;16.07;;;5.50;99.90;;;;;;5119449;28;21050;-76
2021/03/15 02:47:02;;;;;;;14.87;14.27;;;5.50;99.90;;;;;;5115592;28;20463;-76
2021/03/15 02:49:33;;;;;;;15.10;14.50;;;5.40;99.90;;;;;;5114877;28;20536;-76
2021/03/15 02:52:01;;;;;;;14.00;13.40;;;5.40;99.90;;;;;;5117613;28;20512;-76
2021/03/15 02:54:30;;;;;;;14.77;14.17;;;5.50;99.90;;;;;;5113268;28;20508;-75
2021/03/15 02:56:59;;;;;;;14.80;14.20;;;5.60;99.90;;;;;;5122468;28;20459;-75
2021/03/15 02:59:27;;;;;;;14.83;14.23;;;5.60;99.90;;;;;;5116405;28;21037;-75
2021/03/15 03:01:56;;;;;;;15.37;14.67;;;5.70;99.90;;;;;;5116196;28;20454;-75
2021/03/15 03:04:23;;;;;;;15.87;15.17;;;5.70;99.90;;;;;;5117060;28;20459;-75
2021/03/15 03:06:53;;;;;;;15.60;14.90;;;5.70;99.90;;;;;;5113604;28;20494;-75
2021/03/15 03:09:20;;;;;;;15.70;15.00;;;5.70;99.90;;;;;;5105478;28;20502;-75
2021/03/15 03:11:48;;;;;;;15.33;14.63;;;5.80;99.90;;;;;;5120124;28;20545;-75
2021/03/15 03:14:15;;;;;;;14.60;14.00;;;5.80;99.90;;;;;;5120541;27;20459;-75
2021/03/15 03:16:43;;;;;;;15.87;15.17;;;5.80;99.90;;;;;;5120317;27;20483;-75
2021/03/15 03:19:12;;;;;;;15.37;14.67;;;5.80;99.90;;;;;;5121698;27;20499;-76
2021/03/15 03:21:42;;;;;;;16.07;15.37;;;5.70;99.90;;;;;;5118182;27;20558;-76
2021/03/15 03:24:12;;;;;;;15.67;14.97;;;5.80;99.90;;;;;;5109381;27;20467;-75
2021/03/15 03:26:39;;;;;;;15.87;15.17;;;5.70;99.90;;;;;;5118922;27;20555;-76
2021/03/15 03:29:09;;;;;;;15.87;15.17;;;5.70;99.90;;;;;;5118525;27;20463;-75
2021/03/15 03:31:41;;;;;;;16.00;15.30;;;5.80;99.90;;;;;;5116522;27;20509;-75
2021/03/15 03:34:09;;;;;;;15.87;15.17;;;5.80;99.90;;;;;;5124968;27;20863;-75
2021/03/15 03:36:35;;;;;;;15.93;15.23;;;5.90;99.90;;;;;;5121621;27;20456;-75
2021/03/15 03:39:04;;;;;;;15.50;14.80;;;5.90;99.90;;;;;;5124318;27;20454;-74
2021/03/15 03:41:33;;;;;;;14.87;14.27;;;5.90;99.90;;;;;;5125035;27;20466;-74
2021/03/15 03:43:59;;;;;;;15.57;14.87;;;5.90;99.90;;;;;;5118689;27;20479;-74
2021/03/15 03:46:27;;;;;;;15.50;14.80;;;5.80;99.90;;;;;;5118230;27;20488;-74
2021/03/15 03:48:54;;;;;;;15.50;14.80;;;5.80;99.90;;;;;;5125174;27;20517;-74
2021/03/15 03:51:22;;;;;;;14.53;13.93;;;5.70;99.90;;;;;;5120553;27;20460;-73
2021/03/15 03:53:54;;;;;;;14.60;14.00;;;5.70;99.90;;;;;;5121060;27;20451;-75
2021/03/15 03:56:25;;;;;;;14.63;14.03;;;5.60;99.90;;;;;;5120392;27;20452;-74
2021/03/15 03:58:55;;;;;;;14.80;14.20;;;5.70;99.90;;;;;;5119533;27;20459;-74
2021/03/15 04:01:28;;;;;;;16.07;15.37;;;5.70;99.90;;;;;;5117769;27;20457;-74
2021/03/15 04:03:57;;;;;;;16.03;15.33;;;5.70;99.90;;;;;;5112255;27;20458;-74
2021/03/15 04:06:26;;;;;;;16.60;15.90;;;5.70;99.90;;;;;;5120622;27;20479;-74
2021/03/15 04:08:57;;;;;;;15.83;15.13;;;5.70;99.90;;;;;;5124949;27;20558;-73
2021/03/15 04:11:26;;;;;;;14.60;14.00;;;5.70;99.90;;;;;;5125300;27;20452;-74
2021/03/15 04:13:54;;;;;;;14.67;14.07;;;5.70;99.90;;;;;;5117210;27;20491;-74
2021/03/15 04:16:26;;;;;;;14.93;14.33;;;5.70;99.90;;;;;;5114967;27;20476;-75
2021/03/15 04:18:55;;;;;;;15.47;14.77;;;5.70;99.90;;;;;;5112495;27;20469;-74
2021/03/15 04:21:26;;;;;;;15.93;15.23;;;5.70;99.90;;;;;;5120295;27;20963;-75
2021/03/15 04:23:56;;;;;;;15.57;14.87;;;5.70;99.90;;;;;;5117937;27;20453;-76
2021/03/15 04:26:24;;;;;;;15.80;15.10;;;5.80;99.90;;;;;;5115478;27;20570;-76
2021/03/15 04:28:52;;;;;;;15.53;14.83;;;5.80;99.90;;;;;;5119824;27;20462;-75
2021/03/15 04:31:20;;;;;;;15.90;15.20;;;5.80;99.90;;;;;;5106230;27;20465;-76
2021/03/15 04:33:47;;;;;;;15.57;14.87;;;5.80;99.90;;;;;;5122670;27;20471;-75
2021/03/15 04:36:15;;;;;;;16.17;15.47;;;5.80;99.90;;;;;;5118626;27;20463;-75
2021/03/15 04:38:44;;;;;;;15.33;14.63;;;5.80;99.90;;;;;;5121186;27;21029;-75
2021/03/15 04:41:11;;;;;;;15.70;15.00;;;5.70;99.90;;;;;;5120928;27;20464;-76
2021/03/15 04:43:39;;;;;;;15.90;15.20;;;5.70;99.90;;;;;;5113209;27;20472;-76
2021/03/15 04:46:07;;;;;;;14.77;14.17;;;5.70;99.90;;;;;;5117995;27;20562;-76
2021/03/15 04:48:39;;;;;;;14.47;13.87;;;5.70;99.90;;;;;;5118191;27;20967;-75
2021/03/15 04:51:07;;;;;;;14.93;14.33;;;5.60;99.90;;;;;;5118009;27;20459;-76
2021/03/15 04:53:37;;;;;;;15.07;14.37;;;5.60;99.90;;;;;;5117862;27;20456;-76
2021/03/15 04:56:08;;;;;;;14.57;13.97;;;5.60;99.90;;;;;;5119121;27;20481;-75
2021/03/15 04:58:36;;;;;;;14.43;13.83;;;5.50;99.90;;;;;;5122448;27;20826;-75
2021/03/15 05:01:04;;;;;;;14.83;14.20;;;5.40;99.90;;;;;;5122521;27;20488;-75
2021/03/15 05:03:34;;;;;;;15.00;14.30;;;5.40;99.90;;;;;;5123940;27;20849;-75
2021/03/15 05:06:04;;;;;;;15.13;14.50;;;5.30;99.90;;;;;;5123731;27;20480;-75
2021/03/15 05:08:35;;;;;;;15.10;14.47;;;5.30;99.90;;;;;;5119931;27;20479;-75
2021/03/15 05:11:02;;;;;;;14.57;13.97;;;5.20;99.90;;;;;;5119210;27;20486;-75
2021/03/15 05:13:31;;;;;;;14.40;13.80;;;5.20;99.90;;;;;;5114951;27;20877;-75
2021/03/15 05:15:58;;;;;;;15.67;14.97;;;5.20;99.90;;;;;;5121654;27;20556;-76
2021/03/15 05:18:27;;;;;;;14.67;14.07;;;5.20;99.90;;;;;;5115534;27;20526;-76
2021/03/15 05:20:55;;;;;;;14.73;14.13;;;5.20;99.90;;;;;;5120883;27;20461;-76
2021/03/15 05:23:23;;;;;;;15.13;14.43;;;5.20;99.90;;;;;;5122656;27;20521;-76
2021/03/15 05:25:53;;;;;;;14.30;13.70;;;5.20;99.90;;;;;;5116453;27;20476;-75
2021/03/15 05:28:22;;;;;;;14.60;14.00;;;5.20;99.90;;;;;;5110311;27;20986;-75
2021/03/15 05:30:51;;;;;;;13.73;13.13;;;5.20;99.90;;;;;;5113535;27;20877;-75
2021/03/15 05:33:21;;;;;;;13.93;13.33;;;5.20;99.90;;;;;;5118804;27;20486;-75
2021/03/15 05:35:53;;;;;;;14.17;13.57;;;5.20;99.90;;;;;;5118560;27;20460;-75
2021/03/15 05:38:20;;;;;;;13.73;13.13;;;5.20;99.90;;;;;;5113893;27;20472;-75
2021/03/15 05:40:49;;;;;;;14.50;13.90;;;5.20;99.90;;;;;;5106979;27;20891;-74
2021/03/15 05:43:42;;;;;;;14.10;13.50;;;5.30;99.90;;;;;;5116633;27;20458;-74
2021/03/15 05:46:36;;;;;;;13.97;13.37;;;5.20;99.90;;;;;;5106514;27;20505;-75
2021/03/15 05:49:28;;;;;;;13.50;12.90;;;5.20;99.90;;;;;;5077117;27;20959;-74
2021/03/15 05:52:18;;;;;;;13.37;12.77;;;5.30;99.90;;;;;;5113736;27;20807;-73
2021/03/15 05:55:33;;;;;;;14.50;13.90;;;5.30;99.90;;;;;;5116253;27;20464;-74
2021/03/15 05:58:37;;;;;;;14.30;13.70;;;5.20;99.90;;;;;;5112985;27;20535;-74
2021/03/15 06:01:18;;;;;;;14.50;13.90;;;5.30;99.90;;;;;;5116784;27;20459;-75
2021/03/15 06:04:23;;;;;;;14.07;13.47;;;5.30;99.90;;;;;;5111693;27;20457;-74
2021/03/15 06:06:54;;;;;;;14.63;14.03;;;5.30;99.90;;;;;;5110371;27;21015;-75
2021/03/15 06:09:26;;;;;;;15.00;14.30;;;5.20;99.90;;;;;;5115270;27;20469;-74
2021/03/15 06:12:01;;;;;;;14.23;13.63;;;5.20;99.90;;;;;;5113079;27;20674;-75
2021/03/15 06:14:30;;;;;;;13.90;13.30;;;5.30;99.90;;;;;;5113239;27;20463;-75
2021/03/15 06:16:57;;;;;;;14.47;13.87;;;5.20;99.90;;;;;;5104228;27;21038;-75
2021/03/15 06:19:25;;;;;;;15.00;14.30;;;5.20;99.90;;;;;;5114030;27;20464;-75
2021/03/15 06:21:52;;;;;;;14.87;14.17;;;5.30;99.90;;;;;;5105968;27;21074;-75
2021/03/15 06:24:19;;;;;;;14.60;13.90;;;5.40;99.90;;;;;;5113055;27;20490;-75
2021/03/15 06:26:46;;;;;;;14.50;13.90;;;5.40;99.90;;;;;;5105813;28;20523;-75
2021/03/15 06:29:13;;;;;;;14.87;14.17;;;5.40;99.90;;;;;;5107372;28;20456;-75
2021/03/15 06:31:48;;;;;;;14.40;13.80;;;5.40;99.90;;;;;;5107272;28;20472;-74
2021/03/15 06:34:15;;;;;;;15.27;14.57;;;5.40;99.90;;;;;;5112079;28;20534;-75
2021/03/15 06:36:43;;;;;;;14.80;14.10;;;5.40;99.90;;;;;;5115082;28;20464;-75
2021/03/15 06:39:11;;;;;;;14.43;13.83;;;5.40;99.90;;;;;;5108717;28;20464;-75
2021/03/15 06:41:42;;;;;;;16.67;15.73;;;5.40;99.90;;;;;;5111437;28;20511;-75
2021/03/15 06:44:10;;;;;;;14.10;13.50;;;5.40;99.90;;;;;;5103223;28;20943;-75
2021/03/15 06:46:36;;;;;;;14.73;14.07;;;5.40;99.90;;;;;;5104530;28;20947;-75
2021/03/15 06:49:03;;;;;;;14.90;14.20;;;5.50;99.90;;;;;;5111362;27;20465;-74
2021/03/15 06:51:30;;;;;;;14.13;13.53;;;5.40;99.90;;;;;;5114042;27;20465;-74
2021/03/15 06:53:56;;;;;;;16.47;15.77;;;5.40;99.90;;;;;;5111136;27;20461;-75
2021/03/15 06:56:24;;;;;;;15.30;14.60;;;5.40;99.90;;;;;;5116143;27;20509;-74
2021/03/15 06:58:51;;;;;;;15.20;14.50;;;5.40;99.90;;;;;;5115304;27;20971;-74
2021/03/15 07:01:20;;;;;;;15.10;14.40;;;5.40;99.90;;;;;;5097994;27;20475;-75
2021/03/15 07:03:48;;;;;;;15.33;14.63;;;5.50;99.90;;;;;;5106372;27;20496;-74
2021/03/15 07:06:18;;;;;;;14.73;14.13;;;5.50;99.90;;;;;;5106561;27;20485;-74
2021/03/15 07:08:46;;;;;;;15.17;14.47;;;5.50;99.90;;;;;;5099171;28;20460;-74
2021/03/15 07:11:21;;;;;;;14.83;14.13;;;5.50;99.90;;;;;;5095904;28;21004;-74
2021/03/15 07:13:48;;;;;;;15.37;14.67;;;5.50;99.90;;;;;;5094750;28;20967;-74
2021/03/15 07:16:26;;;;;;;14.90;14.30;;;5.60;99.90;;;;;;5102951;28;20480;-74
2021/03/15 07:18:52;;;;;;;14.43;13.83;;;5.60;99.90;;;;;;5101454;28;20837;-74
2021/03/15 07:21:38;;;;;;;13.90;13.30;;;5.60;99.90;;;;;;5099796;28;20461;-74
2021/03/15 07:24:09;;;;;;;14.20;13.60;;;5.70;99.90;;;;;;5094494;28;20551;-75
2021/03/15 07:26:39;;;;;;;14.30;13.70;;;5.70;99.90;;;;;;5099157;28;20491;-74
2021/03/15 07:29:10;;;;;;;14.30;13.70;;;5.70;99.90;;;;;;5092213;28;20499;-75
2021/03/15 07:31:37;;;;;;;14.30;13.70;;;5.80;99.90;;;;;;5091842;28;20988;-73
2021/03/15 07:34:12;;;;;;;13.60;13.00;;;5.90;99.90;;;;;;5093400;28;20456;-73
2021/03/15 07:36:53;;;;;;;13.30;12.70;;;6.00;99.90;;;;;;5100173;28;20564;-73
2021/03/15 07:39:20;;;;;;;13.47;12.87;;;6.00;99.90;;;;;;5100535;28;20977;-75
2021/03/15 07:41:48;;;;;;;12.70;12.20;;;6.00;99.90;;;;;;5095555;28;20497;-73
2021/03/15 07:44:17;;;;;;;12.43;11.93;;;5.90;99.90;;;;;;5098908;28;20455;-75
2021/03/15 07:46:45;;;;;;;22.53;20.33;;;5.90;99.90;;;;;;5096827;28;20792;-75
2021/03/15 07:49:30;;;;;;;21.20;19.40;;;5.90;99.90;;;;;;5099185;28;20469;-73
2021/03/15 07:52:02;;;;;;;20.70;18.80;;;5.80;99.90;;;;;;5099088;28;20821;-74
2021/03/15 07:54:31;;;;;;;20.10;18.27;;;5.90;99.90;;;;;;5098220;28;20459;-75
2021/03/15 07:57:18;;;;;;;23.33;21.03;;;6.00;99.90;;;;;;5097716;28;20465;-76
2021/03/15 07:59:46;;;;;;;22.10;19.70;;;6.00;99.90;;;;;;5090784;28;20835;-72
2021/03/15 08:02:16;;;;;;;20.83;18.90;;;6.00;99.90;;;;;;5092581;28;21470;-74
2021/03/15 08:04:43;;;;;;;21.90;19.57;;;6.20;99.90;;;;;;5099806;27;20510;-73
2021/03/15 08:07:12;;;;;;;21.60;19.53;;;6.20;99.90;;;;;;5103823;27;20502;-74
2021/03/15 08:09:41;;;;;;;27.10;22.03;;;6.30;99.90;;;;;;5108893;27;20586;-74
2021/03/15 08:12:10;;;;;;;21.33;19.30;;;6.20;99.90;;;;;;5109349;27;20469;-72
2021/03/15 08:14:38;;;;;;;23.00;20.63;;;6.40;99.90;;;;;;5114893;27;20537;-73
2021/03/15 08:17:05;;;;;;;20.73;18.60;;;6.40;99.90;;;;;;5110970;27;20980;-74
2021/03/15 08:19:34;;;;;;;22.47;20.20;;;6.80;99.90;;;;;;5114152;27;20455;-73
2021/03/15 08:22:03;;;;;;;21.60;19.70;;;6.90;99.90;;;;;;5110036;27;20494;-73
2021/03/15 08:24:36;;;;;;;22.90;19.30;;;7.00;99.90;;;;;;5104799;27;20471;-74
2021/03/15 08:27:03;;;;;;;22.53;17.60;;;6.80;99.90;;;;;;5109738;27;20488;-74
2021/03/15 08:29:36;;;;;;;19.93;18.40;;;6.80;99.90;;;;;;5110805;27;20823;-74
2021/03/15 08:32:05;;;;;;;19.10;17.47;;;6.90;99.90;;;;;;5106241;27;20449;-73
2021/03/15 08:34:34;;;;;;;19.60;17.70;;;7.10;99.90;;;;;;5099605;27;20510;-73
2021/03/15 08:37:00;;;;;;;20.20;18.20;;;7.10;99.90;;;;;;5106463;27;20530;-73
2021/03/15 08:39:41;;;;;;;20.30;18.23;;;6.90;99.90;;;;;;5110221;27;20470;-74
2021/03/15 08:42:24;;;;;;;20.73;18.60;;;7.00;99.90;;;;;;5107736;27;20477;-74
2021/03/15 08:44:51;;;;;;;23.23;18.77;;;7.10;99.90;;;;;;5106791;27;20779;-74
2021/03/15 08:47:50;;;;;;;18.67;16.87;;;7.20;99.90;;;;;;5107987;27;20763;-73
2021/03/15 08:50:57;;;;;;;19.17;15.67;;;7.20;99.90;;;;;;5111866;27;20689;-73
2021/03/15 08:53:48;;;;;;;15.97;14.67;;;7.20;99.90;;;;;;5112515;27;21046;-74
2021/03/15 08:56:37;;;;;;;15.40;14.27;;;7.20;99.90;;;;;;5105070;27;20465;-72
2021/03/15 08:59:06;;;;;;;16.67;14.87;;;7.20;99.90;;;;;;5104753;27;21125;-73
2021/03/15 09:01:56;;;;;;;20.30;17.30;;;7.50;99.90;;;;;;5094882;27;20538;-72
2021/03/15 09:04:41;;;;;;;16.87;15.47;;;7.60;99.90;;;;;;5102552;27;20506;-73
2021/03/15 09:07:43;;;;;;;17.73;15.10;;;7.50;99.90;;;;;;5102415;27;20497;-75
2021/03/15 09:10:44;;;;;;;16.30;15.03;;;7.50;99.90;;;;;;5107454;27;20999;-73
2021/03/15 09:13:32;;;;;;;17.70;14.90;;;7.40;99.90;;;;;;5109635;27;20479;-74
2021/03/15 09:16:03;;;;;;;16.17;14.57;;;7.40;99.90;;;;;;5105422;27;20505;-74
2021/03/15 09:18:48;;;;;;;15.40;14.13;;;7.50;99.90;;;;;;5107780;27;20525;-75
2021/03/15 09:22:03;;;;;;;15.67;14.53;;;7.60;99.90;;;;;;5099148;27;20950;-75
2021/03/15 09:24:51;;;;;;;15.13;13.90;;;7.50;99.90;;;;;;5104836;27;20452;-74
2021/03/15 09:27:39;;;;;;;16.37;15.20;;;7.60;99.90;;;;;;5109205;27;20498;-75
2021/03/15 09:30:15;;;;;;;23.43;15.10;;;7.80;99.90;;;;;;5094784;27;20576;-74
2021/03/15 09:32:43;;;;;;;22.53;16.63;;;7.90;99.90;;;;;;5103940;27;20569;-76
2021/03/15 09:35:25;;;;;;;16.20;15.00;;;8.10;99.90;;;;;;5106589;27;20453;-74
2021/03/15 09:37:57;;;;;;;18.37;16.70;;;8.10;99.90;;;;;;5104729;27;20587;-74
2021/03/15 09:40:26;;;;;;;18.20;16.80;;;7.90;99.90;;;;;;5112396;27;20463;-74
2021/03/15 09:42:53;;;;;;;15.87;14.80;;;7.90;99.90;;;;;;5109905;27;20463;-73
2021/03/15 09:45:34;;;;;;;16.70;15.30;;;7.90;99.90;;;;;;5108515;27;20463;-72
2021/03/15 09:48:01;;;;;;;16.67;15.27;;;7.80;99.90;;;;;;5111426;27;20477;-76
2021/03/15 09:50:30;;;;;;;16.57;15.27;;;7.70;99.90;;;;;;5111967;27;20641;-73
2021/03/15 09:53:08;;;;;;;17.90;16.10;;;7.70;99.90;;;;;;5107354;27;20476;-75
2021/03/15 09:55:34;;;;;;;15.87;14.53;;;8.00;99.90;;;;;;5106325;27;20463;-74
2021/03/15 09:58:08;;;;;;;15.97;14.97;;;8.40;99.90;;;;;;5109282;27;20461;-74
2021/03/15 10:00:35;;;;;;;16.70;15.50;;;9.00;99.90;;;;;;5110975;27;20465;-76
2021/03/15 10:03:02;;;;;;;15.43;14.33;;;10.00;99.90;;;;;;5101299;27;20457;-73
2021/03/15 10:05:29;;;;;;;17.03;15.73;;;10.20;99.90;;;;;;5105291;27;20551;-74
2021/03/15 10:07:55;;;;;;;16.73;15.23;;;10.20;99.90;;;;;;5114548;27;20490;-75
2021/03/15 10:10:23;;;;;;;15.90;14.57;;;9.60;99.90;;;;;;5106660;27;20545;-73
2021/03/15 10:13:03;;;;;;;15.83;14.73;;;8.90;99.90;;;;;;5109882;27;20459;-73
2021/03/15 10:15:30;;;;;;;14.70;13.63;;;8.60;99.90;;;;;;5102340;27;20848;-75
2021/03/15 10:17:58;;;;;;;20.33;15.10;;;8.60;99.90;;;;;;5111229;27;20463;-72
2021/03/15 10:20:26;;;;;;;16.30;15.10;;;8.70;99.90;;;;;;5115176;27;20457;-72
2021/03/15 10:22:53;;;;;;;15.73;14.60;;;8.70;99.90;;;;;;5104374;27;20859;-76
2021/03/15 10:25:20;;;;;;;16.40;15.13;;;9.20;99.90;;;;;;5109278;27;20548;-77
2021/03/15 10:27:55;;;;;;;17.30;15.60;;;9.90;99.90;;;;;;5104681;27;21104;-74
2021/03/15 10:30:27;;;;;;;16.20;14.80;;;9.90;99.90;;;;;;5105386;28;21005;-74
2021/03/15 10:32:53;;;;;;;15.77;14.60;;;9.50;99.90;;;;;;5107240;28;20449;-74
2021/03/15 10:35:21;;;;;;;17.13;15.63;;;8.90;99.90;;;;;;5114108;28;20528;-76
2021/03/15 10:37:51;;;;;;;18.10;16.30;;;8.40;99.90;;;;;;5106817;28;20461;-74
2021/03/15 10:40:20;;;;;;;20.20;18.90;;;8.00;99.90;;;;;;5110715;28;20978;-72
2021/03/15 10:42:50;;;;;;;22.13;20.50;;;7.60;99.90;;;;;;5104962;28;20479;-78
2021/03/15 10:45:16;;;;;;;16.20;15.40;;;6.40;99.90;;;;;;5101885;28;20465;-77
2021/03/15 10:47:43;;;;;;;15.60;14.80;;;4.90;99.90;;;;;;5094461;28;20461;-80
2021/03/15 10:50:25;;;;;;;13.03;12.43;;;4.60;99.90;;;;;;5100934;28;21105;-82
2021/03/15 10:52:52;;;;;;;12.27;11.77;;;4.50;99.90;;;;;;5101156;28;21037;-80
2021/03/15 10:55:21;;;;;;;11.87;11.37;;;4.60;99.90;;;;;;5102731;28;20876;-78
2021/03/15 10:58:05;;;;;;;12.20;11.70;;;4.60;99.90;;;;;;5099527;28;20476;-77
2021/03/15 11:00:34;;;;;;;11.50;11.00;;;4.60;99.90;;;;;;5098115;28;20576;-76
2021/03/15 11:03:01;;;;;;;12.60;12.10;;;4.70;99.90;;;;;;5103595;28;20464;-76
2021/03/15 11:05:28;;;;;;;11.83;11.33;;;4.80;99.90;;;;;;5103443;28;20461;-76
2021/03/15 11:07:55;;;;;;;9.93;9.53;;;5.10;99.90;;;;;;5098601;28;20481;-75
2021/03/15 11:10:23;;;;;;;9.90;9.50;;;5.80;99.90;;;;;;5099111;28;20464;-76
2021/03/15 11:12:54;;;;;;;10.40;10.00;;;6.50;99.90;;;;;;5111873;28;20499;-75
2021/03/15 11:15:23;;;;;;;10.30;9.90;;;6.50;99.90;;;;;;5098609;28;20461;-75
2021/03/15 11:18:10;;;;;;;10.20;9.80;;;7.10;99.90;;;;;;5100967;28;21004;-74
2021/03/15 11:20:53;;;;;;;11.57;11.07;;;7.70;99.90;;;;;;5100496;28;20470;-76
2021/03/15 11:23:31;;;;;;;10.60;10.20;;;8.30;99.90;;;;;;5106674;28;20461;-76
2021/03/15 11:26:06;;;;;;;12.50;12.00;;;8.70;99.90;;;;;;5110896;28;20479;-76
2021/03/15 11:28:35;;;;;;;12.73;12.23;;;8.90;99.90;;;;;;5100976;28;21296;-76
2021/03/15 11:31:01;;;;;;;13.73;13.13;;;8.60;99.90;;;;;;5110432;28;20478;-76
2021/03/15 11:33:29;;;;;;;14.63;13.93;;;8.60;99.90;;;;;;5106305;27;20471;-75
2021/03/15 11:35:59;;;;;;;14.80;14.10;;;8.40;99.90;;;;;;5110146;27;20460;-74
2021/03/15 11:38:26;;;;;;;15.60;14.80;;;8.20;99.90;;;;;;5115512;27;21127;-75
2021/03/15 11:40:54;;;;;;;16.07;15.27;;;8.00;99.90;;;;;;5108430;27;20453;-75
2021/03/15 11:43:21;;;;;;;15.37;14.67;;;7.50;99.90;;;;;;5110061;27;20465;-75
2021/03/15 11:45:47;;;;;;;14.63;13.93;;;7.40;99.90;;;;;;5105365;27;20477;-75
2021/03/15 11:48:14;;;;;;;14.37;13.67;;;8.30;99.90;;;;;;5109711;27;20471;-75
2021/03/15 11:50:40;;;;;;;15.00;14.30;;;9.20;99.90;;;;;;5112235;27;20491;-76
2021/03/15 11:53:08;;;;;;;16.40;15.60;;;9.50;99.90;;;;;;5102546;27;20462;-75
2021/03/15 11:55:35;;;;;;;18.23;17.07;;;9.70;99.90;;;;;;5105524;27;20496;-75
2021/03/15 11:58:01;;;;;;;18.03;17.03;;;10.20;99.90;;;;;;5107945;27;20572;-75
2021/03/15 12:00:28;;;;;;;18.40;17.00;;;10.20;99.90;;;;;;5104308;27;20469;-74
2021/03/15 12:02:55;;;;;;;17.90;16.77;;;10.60;99.90;;;;;;5107381;27;21601;-75
2021/03/15 12:05:22;;;;;;;18.00;16.90;;;10.50;99.90;;;;;;5112787;27;20466;-74
2021/03/15 12:07:49;;;;;;;17.37;16.30;;;11.10;99.90;;;;;;5110785;27;20599;-75
2021/03/15 12:10:17;;;;;;;17.17;15.83;;;11.00;99.90;;;;;;5109747;27;21235;-76
2021/03/15 12:12:43;;;;;;;17.00;15.80;;;10.30;99.90;;;;;;5100587;27;20551;-76
2021/03/15 12:15:13;;;;;;;17.40;16.20;;;9.80;99.90;;;;;;5103644;27;20465;-76
2021/03/15 12:17:39;;;;;;;17.17;15.90;;;9.20;99.90;;;;;;5113543;27;20475;-75
2021/03/15 12:20:08;;;;;;;16.10;15.23;;;8.90;99.90;;;;;;5109788;27;20650;-76
2021/03/15 12:22:34;;;;;;;16.93;15.53;;;8.70;99.90;;;;;;5106353;27;21033;-75
2021/03/15 12:25:01;;;;;;;16.50;15.20;;;8.40;99.90;;;;;;5110560;27;20551;-76
2021/03/15 12:27:29;;;;;;;16.27;14.60;;;8.30;99.90;;;;;;5107468;27;20546;-75
2021/03/15 12:29:55;;;;;;;15.60;14.50;;;8.30;99.90;;;;;;5105680;27;20913;-74
2021/03/15 12:32:21;;;;;;;16.40;15.13;;;8.80;99.90;;;;;;5110071;27;20457;-75
2021/03/15 12:34:48;;;;;;;15.40;14.17;;;9.40;99.90;;;;;;5105845;27;20460;-76
2021/03/15 12:37:14;;;;;;;14.63;13.87;;;9.70;99.90;;;;;;5099764;27;20565;-78
2021/03/15 12:39:41;;;;;;;15.83;14.93;;;10.10;99.90;;;;;;5098617;27;20464;-76
2021/03/15 12:42:08;;;;;;;15.03;14.03;;;10.40;99.90;;;;;;5105434;27;21086;-76
2021/03/15 12:44:35;;;;;;;15.97;14.77;;;10.60;99.90;;;;;;5107166;27;20492;-76
2021/03/15 12:47:01;;;;;;;16.20;15.20;;;10.80;99.90;;;;;;5104413;27;20488;-78
2021/03/15 12:49:28;;;;;;;15.93;14.93;;;11.50;99.90;;;;;;5103689;27;21083;-76
2021/03/15 12:51:54;;;;;;;14.87;14.17;;;11.30;99.90;;;;;;5103670;27;20457;-75
2021/03/15 12:54:21;;;;;;;16.97;15.87;;;11.10;99.90;;;;;;5102495;27;20863;-76
2021/03/15 12:56:47;;;;;;;18.73;16.90;;;11.30;99.90;;;;;;5100819;27;20468;-75